createdAt,value
2018-08-08T00:01:47.822Z,7.20
2018-08-08T00:04:14.778Z,6.50
2018-08-08T00:06:41.648Z,6.33
2018-08-08T00:09:08.590Z,6.80
2018-08-08T00:11:35.515Z,7.03
2018-08-08T00:14:02.525Z,6.50
2018-08-08T00:16:30.137Z,7.17
2018-08-08T00:18:57.103Z,6.43
2018-08-08T00:21:23.960Z,6.50
2018-08-08T00:23:50.873Z,5.90
2018-08-08T00:26:17.744Z,6.93
2018-08-08T00:28:44.693Z,6.50
2018-08-08T00:31:11.538Z,6.00
2018-08-08T00:33:38.440Z,6.40
2018-08-08T00:36:05.292Z,6.77
2018-08-08T00:38:32.209Z,6.10
2018-08-08T00:40:59.108Z,5.50
2018-08-08T00:43:26.147Z,6.73
2018-08-08T00:45:53.024Z,6.47
2018-08-08T00:48:20.705Z,6.77
2018-08-08T00:50:47.585Z,6.60
2018-08-08T00:53:14.502Z,6.57
2018-08-08T00:55:41.390Z,7.17
2018-08-08T00:58:08.348Z,6.23
2018-08-08T01:00:35.202Z,7.03
2018-08-08T01:03:02.913Z,7.00
2018-08-08T01:05:29.867Z,5.97
2018-08-08T01:07:56.824Z,6.53
2018-08-08T01:10:23.713Z,5.87
2018-08-08T01:12:50.659Z,6.50
2018-08-08T01:15:17.550Z,6.27
2018-08-08T01:17:44.428Z,7.30
2018-08-08T01:20:11.441Z,5.57
2018-08-08T01:22:38.350Z,5.90
2018-08-08T01:25:06.090Z,6.73
2018-08-08T01:27:32.958Z,6.53
2018-08-08T01:29:59.880Z,5.90
2018-08-08T01:32:26.759Z,6.10
2018-08-08T01:34:53.707Z,6.87
2018-08-08T01:37:20.573Z,6.97
2018-08-08T01:39:47.517Z,7.90
2018-08-08T01:42:14.552Z,7.00
2018-08-08T01:44:41.458Z,6.13
2018-08-08T01:47:09.080Z,5.57
2018-08-08T01:49:36.002Z,6.10
2018-08-08T01:52:02.928Z,6.73
2018-08-08T01:54:29.927Z,6.50
2018-08-08T01:56:56.785Z,7.93
2018-08-08T01:59:23.704Z,7.03
2018-08-08T02:01:50.577Z,6.90
2018-08-08T02:04:17.545Z,6.60
2018-08-08T02:06:44.388Z,6.47
2018-08-08T02:09:12.078Z,7.13
2018-08-08T02:11:38.940Z,7.47
2018-08-08T02:14:05.912Z,6.37
2018-08-08T02:16:32.790Z,7.37
2018-08-08T02:19:00.509Z,7.23
2018-08-08T02:21:27.417Z,6.97
2018-08-08T02:23:54.397Z,6.30
2018-08-08T02:26:21.253Z,7.30
2018-08-08T02:28:48.204Z,7.20
2018-08-08T02:31:16.986Z,7.00
2018-08-08T02:33:43.854Z,6.40
2018-08-08T02:36:11.547Z,7.27
2018-08-08T02:38:38.449Z,7.90
2018-08-08T02:41:05.458Z,7.07
2018-08-08T02:43:32.415Z,8.13
2018-08-08T02:45:59.386Z,7.60
2018-08-08T02:48:26.265Z,7.30
2018-08-08T02:50:53.228Z,7.57
2018-08-08T02:53:20.284Z,7.77
2018-08-08T02:55:47.280Z,7.53
2018-08-08T02:58:14.145Z,7.90
2018-08-08T03:00:41.800Z,7.80
2018-08-08T03:03:09.417Z,8.47
2018-08-08T03:05:36.361Z,7.90
2018-08-08T03:08:03.271Z,7.60
2018-08-08T03:10:30.226Z,7.20
2018-08-08T03:12:57.167Z,7.20
2018-08-08T03:15:24.153Z,7.80
2018-08-08T03:17:51.025Z,7.37
2018-08-08T03:20:17.989Z,7.77
2018-08-08T03:22:45.595Z,7.47
2018-08-08T03:25:12.521Z,7.70
2018-08-08T03:27:39.380Z,7.67
2018-08-08T03:30:06.348Z,7.83
2018-08-08T03:32:33.265Z,7.73
2018-08-08T03:35:00.186Z,7.87
2018-08-08T03:37:27.053Z,6.40
2018-08-08T03:39:53.961Z,7.27
2018-08-08T03:42:20.990Z,7.93
2018-08-08T03:44:47.908Z,6.53
2018-08-08T03:47:14.776Z,7.40
2018-08-08T03:49:41.712Z,7.60
2018-08-08T03:52:08.641Z,7.43
2018-08-08T03:54:37.076Z,7.20
2018-08-08T03:57:04.630Z,7.90
2018-08-08T03:59:32.273Z,7.30
2018-08-08T04:01:59.262Z,7.30
2018-08-08T04:04:26.109Z,7.30
2018-08-08T04:06:53.061Z,7.60
2018-08-08T04:09:19.961Z,7.73
2018-08-08T04:11:46.965Z,8.30
2018-08-08T04:14:13.848Z,7.30
2018-08-08T04:16:40.823Z,7.50
2018-08-08T04:19:07.784Z,8.07
2018-08-08T04:21:34.761Z,7.50
2018-08-08T04:24:01.656Z,7.47
2018-08-08T04:26:29.500Z,8.00
2018-08-08T04:29:11.495Z,8.27
2018-08-08T04:31:39.379Z,8.07
2018-08-08T04:34:08.973Z,8.70
2018-08-08T04:36:36.096Z,9.63
2018-08-08T04:39:03.173Z,10.13
2018-08-08T04:41:40.895Z,9.60
2018-08-08T04:44:08.321Z,9.90
2018-08-08T04:46:46.406Z,9.67
2018-08-08T04:49:27.499Z,8.90
2018-08-08T04:52:07.967Z,9.60
2018-08-08T04:54:48.535Z,10.03
2018-08-08T04:57:15.568Z,9.30
2018-08-08T04:59:56.390Z,9.23
2018-08-08T05:04:56.262Z,10.00
2018-08-08T05:07:23.328Z,9.70
2018-08-08T05:09:50.220Z,9.13
2018-08-08T05:17:22.171Z,8.40
2018-08-08T05:19:49.097Z,9.20
2018-08-08T05:22:16.100Z,9.40
2018-08-08T05:24:43.036Z,9.80
2018-08-08T05:29:43.453Z,9.67
2018-08-08T05:32:10.441Z,9.50
2018-08-08T05:34:37.381Z,9.97
2018-08-08T05:39:37.642Z,8.87
2018-08-08T05:42:04.654Z,9.77
2018-08-08T05:44:32.513Z,9.30
2018-08-08T05:46:59.546Z,8.60
2018-08-08T05:49:26.563Z,8.90
2018-08-08T05:54:26.646Z,8.50
2018-08-08T05:57:00.430Z,8.70
2018-08-08T05:59:28.384Z,8.67
2018-08-08T06:01:55.319Z,8.07
2018-08-08T06:04:22.225Z,8.03
2018-08-08T06:09:22.700Z,6.83
2018-08-08T06:11:49.722Z,7.70
2018-08-08T06:14:16.651Z,7.40
2018-08-08T06:16:44.349Z,7.90
2018-08-08T06:19:11.289Z,8.00
2018-08-08T06:21:38.261Z,6.90
2018-08-08T06:24:05.196Z,7.17
2018-08-08T06:26:32.132Z,6.63
2018-08-08T06:28:59.020Z,7.10
2018-08-08T06:31:25.973Z,6.30
2018-08-08T06:33:52.952Z,5.50
2018-08-08T06:36:20.615Z,5.70
2018-08-08T06:41:24.878Z,5.07
2018-08-08T06:46:25.409Z,5.80
2018-08-08T06:59:05.456Z,4.70
2018-08-08T07:01:32.341Z,5.40
2018-08-08T07:03:59.347Z,5.83
2018-08-08T07:06:27.900Z,5.03
2018-08-08T07:08:56.384Z,5.57
2018-08-08T07:11:24.029Z,5.07
2018-08-08T07:13:51.008Z,5.37
2018-08-08T07:16:17.969Z,5.03
2018-08-08T07:18:56.658Z,4.43
2018-08-08T07:21:23.908Z,4.90
2018-08-08T07:23:51.884Z,5.30
2018-08-08T07:26:30.076Z,5.87
2018-08-08T07:28:57.678Z,4.70
2018-08-08T07:31:24.590Z,4.57
2018-08-08T07:33:52.290Z,4.93
2018-08-08T07:36:19.281Z,4.33
2018-08-08T07:38:46.274Z,4.40
2018-08-08T07:41:13.297Z,4.43
2018-08-08T07:43:40.300Z,4.53
2018-08-08T07:46:07.264Z,4.87
2018-08-08T07:48:34.254Z,4.27
2018-08-08T07:51:01.169Z,5.20
2018-08-08T07:53:28.176Z,4.17
2018-08-08T07:55:55.108Z,4.90
2018-08-08T08:01:01.468Z,4.70
2018-08-08T08:03:29.187Z,4.77
2018-08-08T08:05:56.045Z,4.30
2018-08-08T08:08:22.972Z,4.83
2018-08-08T08:10:49.882Z,5.00
2018-08-08T08:13:16.940Z,4.50
2018-08-08T08:15:43.812Z,5.23
2018-08-08T08:18:10.757Z,6.03
2018-08-08T08:20:37.625Z,4.80
2018-08-08T08:25:37.682Z,5.50
2018-08-08T08:28:05.381Z,5.60
2018-08-08T08:30:32.273Z,5.90
2018-08-08T08:32:59.181Z,5.00
2018-08-08T08:35:26.049Z,5.10
2018-08-08T08:37:52.989Z,5.40
2018-08-08T08:40:19.879Z,5.23
2018-08-08T08:42:46.785Z,4.90
2018-08-08T08:45:13.704Z,4.90
2018-08-08T08:47:40.573Z,5.43
2018-08-08T08:50:07.610Z,5.47
2018-08-08T08:52:34.487Z,5.33
2018-08-08T08:55:01.433Z,5.37
2018-08-08T08:57:28.428Z,5.90
2018-08-08T09:02:28.736Z,6.40
2018-08-08T09:04:55.670Z,5.10
2018-08-08T09:07:22.628Z,5.53
2018-08-08T09:09:49.545Z,5.10
2018-08-08T09:12:16.559Z,5.10
2018-08-08T09:19:49.558Z,5.10
2018-08-08T09:22:16.453Z,4.77
2018-08-08T09:24:43.384Z,5.20
2018-08-08T09:27:10.244Z,5.13
2018-08-08T09:29:37.248Z,4.70
2018-08-08T09:32:04.171Z,5.00
2018-08-08T09:34:31.800Z,4.43
2018-08-08T09:36:58.741Z,4.67
2018-08-08T09:39:25.646Z,4.23
2018-08-08T09:41:52.622Z,3.80
2018-08-08T09:44:19.501Z,4.13
2018-08-08T09:46:46.440Z,3.70
2018-08-08T09:49:13.350Z,4.30
2018-08-08T09:51:40.332Z,4.10
2018-08-08T09:54:07.205Z,3.77
2018-08-08T09:59:07.282Z,4.40
2018-08-08T10:02:07.560Z,3.97
2018-08-08T10:04:34.577Z,3.97
2018-08-08T10:07:01.554Z,3.80
2018-08-08T10:09:28.449Z,3.30
2018-08-08T10:14:30.912Z,4.40
2018-08-08T10:16:58.894Z,4.13
2018-08-08T10:19:39.712Z,3.77
2018-08-08T10:22:14.003Z,4.60
2018-08-08T10:24:40.887Z,4.07
2018-08-08T10:27:15.042Z,4.43
2018-08-08T10:29:42.478Z,5.40
2018-08-08T10:32:09.474Z,4.17
2018-08-08T10:34:36.433Z,3.97
2018-08-08T10:37:04.333Z,3.83
2018-08-08T10:39:31.256Z,4.20
2018-08-08T10:41:58.211Z,4.03
2018-08-08T10:44:25.531Z,4.33
2018-08-08T10:46:52.574Z,4.20
2018-08-08T10:49:20.839Z,3.87
2018-08-08T10:51:48.032Z,3.73
2018-08-08T10:54:14.917Z,3.90
2018-08-08T10:56:41.888Z,4.13
2018-08-08T10:59:08.791Z,4.40
2018-08-08T11:01:36.629Z,3.60
2018-08-08T11:04:03.548Z,4.90
2018-08-08T11:06:31.393Z,4.40
2018-08-08T11:08:58.447Z,4.10
2018-08-08T11:11:26.224Z,3.87
2018-08-08T11:13:56.901Z,3.93
2018-08-08T11:16:37.739Z,3.70
2018-08-08T11:19:05.731Z,4.27
2018-08-08T11:21:33.559Z,3.57
2018-08-08T11:24:00.479Z,3.57
2018-08-08T11:26:27.423Z,3.87
2018-08-08T11:28:54.304Z,6.27
2018-08-08T11:31:21.629Z,5.10
2018-08-08T11:33:49.097Z,4.33
2018-08-08T11:36:15.984Z,4.70
2018-08-08T11:38:43.020Z,3.93
2018-08-08T11:44:01.198Z,3.63
2018-08-08T11:46:34.055Z,4.50
2018-08-08T11:49:12.014Z,5.10
2018-08-08T11:51:40.500Z,4.57
2018-08-08T11:54:08.219Z,4.50
2018-08-08T11:56:37.837Z,5.40
2018-08-08T11:59:04.845Z,4.90
2018-08-08T12:01:33.394Z,4.57
2018-08-08T12:04:01.373Z,4.63
2018-08-08T12:06:37.845Z,4.53
2018-08-08T12:09:15.783Z,4.33
2018-08-08T12:11:54.398Z,4.00
2018-08-08T12:14:36.519Z,5.10
2018-08-08T12:17:17.382Z,4.80
2018-08-08T12:19:54.456Z,4.90
2018-08-08T12:22:31.185Z,4.30
2018-08-08T12:24:59.331Z,5.20
2018-08-08T12:27:26.493Z,5.30
2018-08-08T12:29:54.816Z,4.60
2018-08-08T12:32:21.763Z,5.43
2018-08-08T12:34:48.662Z,5.60
2018-08-08T12:37:28.681Z,5.77
2018-08-08T12:42:44.395Z,5.80
2018-08-08T12:45:17.403Z,5.40
2018-08-08T12:47:58.554Z,5.70
2018-08-08T12:50:33.099Z,5.77
2018-08-08T12:53:00.216Z,4.63
2018-08-08T12:55:27.167Z,5.23
2018-08-08T12:57:54.104Z,6.40
2018-08-08T13:00:22.571Z,5.80
2018-08-08T13:02:50.365Z,5.93
2018-08-08T13:05:17.401Z,6.17
2018-08-08T13:07:46.085Z,6.63
2018-08-08T13:10:20.680Z,6.47
2018-08-08T13:12:56.465Z,5.93
2018-08-08T13:15:37.005Z,5.80
2018-08-08T13:20:59.048Z,6.23
2018-08-08T13:23:39.818Z,6.13
2018-08-08T13:26:17.362Z,6.30
2018-08-08T13:28:50.484Z,6.53
2018-08-08T13:31:31.320Z,7.43
2018-08-08T13:34:14.537Z,6.13
2018-08-08T13:36:43.570Z,6.63
2018-08-08T13:39:10.714Z,6.47
2018-08-08T13:41:38.409Z,5.57
2018-08-08T13:44:05.489Z,5.93
2018-08-08T13:46:33.222Z,5.73
2018-08-08T13:49:00.909Z,6.10
2018-08-08T13:51:27.783Z,6.97
2018-08-08T13:53:54.709Z,7.20
2018-08-08T13:56:21.599Z,6.50
2018-08-08T13:58:48.549Z,6.20
2018-08-08T14:01:16.185Z,7.20
2018-08-08T14:03:58.292Z,7.43
2018-08-08T14:06:39.182Z,6.30
2018-08-08T14:12:06.300Z,6.90
2018-08-08T14:14:48.823Z,6.30
2018-08-08T14:17:31.634Z,6.50
2018-08-08T14:20:12.192Z,6.50
2018-08-08T14:22:54.802Z,6.80
2018-08-08T14:25:37.943Z,6.70
2018-08-08T14:28:06.397Z,6.97
2018-08-08T14:30:33.477Z,6.03
2018-08-08T14:33:13.698Z,6.57
2018-08-08T14:35:41.418Z,6.70
2018-08-08T14:38:08.342Z,6.27
2018-08-08T14:40:36.132Z,7.70
2018-08-08T14:43:03.068Z,6.47
2018-08-08T14:45:30.021Z,6.30
2018-08-08T14:47:57.445Z,6.57
2018-08-08T14:50:24.413Z,7.10
2018-08-08T14:52:51.323Z,6.27
2018-08-08T14:55:18.353Z,7.30
2018-08-08T14:57:45.331Z,7.60
2018-08-08T15:00:22.016Z,6.33
2018-08-08T15:02:48.880Z,6.70
2018-08-08T15:05:21.611Z,7.33
2018-08-08T15:07:48.494Z,6.00
2018-08-08T15:10:15.474Z,7.37
2018-08-08T15:12:42.375Z,6.97
2018-08-08T15:15:22.685Z,7.63
2018-08-08T15:17:50.535Z,6.90
2018-08-08T15:20:17.533Z,7.10
2018-08-08T15:22:44.416Z,8.10
2018-08-08T15:25:11.437Z,7.33
2018-08-08T15:27:38.430Z,7.90
2018-08-08T15:30:05.478Z,6.60
2018-08-08T15:32:32.437Z,7.47
2018-08-08T15:34:59.400Z,7.30
2018-08-08T15:37:26.656Z,7.57
2018-08-08T15:39:53.302Z,7.97
2018-08-08T15:42:20.177Z,9.07
2018-08-08T15:44:47.125Z,9.50
2018-08-08T15:47:16.480Z,8.90
2018-08-08T15:49:44.133Z,9.03
2018-08-08T15:52:11.833Z,7.63
2018-08-08T15:54:39.371Z,8.17
2018-08-08T15:57:13.726Z,7.40
2018-08-08T15:59:56.326Z,8.13
2018-08-08T16:05:22.151Z,7.60
2018-08-08T16:08:04.190Z,8.10
2018-08-08T16:13:15.070Z,7.83
2018-08-08T16:15:42.029Z,7.63
2018-08-08T16:18:08.961Z,7.60
2018-08-08T16:20:35.885Z,8.53
2018-08-08T16:23:02.823Z,7.53
2018-08-08T16:25:29.769Z,8.37
2018-08-08T16:27:56.695Z,7.60
2018-08-08T16:30:24.363Z,8.33
2018-08-08T16:32:53.163Z,7.07
2018-08-08T16:35:20.929Z,8.50
2018-08-08T16:37:48.211Z,7.57
2018-08-08T16:40:16.102Z,7.40
2018-08-08T16:42:46.874Z,7.30
2018-08-08T16:45:19.808Z,7.60
2018-08-08T16:47:57.347Z,7.60
2018-08-08T16:50:25.774Z,7.50
2018-08-08T16:52:52.689Z,7.83
2018-08-08T16:55:19.693Z,7.43
2018-08-08T16:57:46.588Z,8.83
2018-08-08T17:00:13.508Z,7.67
2018-08-08T17:02:40.472Z,8.20
2018-08-08T17:05:07.378Z,7.63
2018-08-08T17:07:34.307Z,8.73
2018-08-08T17:10:01.214Z,8.73
2018-08-08T17:12:28.189Z,7.60
2018-08-08T17:14:55.094Z,8.30
2018-08-08T17:17:22.052Z,7.67
2018-08-08T17:19:48.960Z,7.60
2018-08-08T17:22:15.920Z,7.40
2018-08-08T17:24:42.902Z,8.10
2018-08-08T17:27:09.917Z,7.50
2018-08-08T17:29:36.878Z,8.20
2018-08-08T17:32:03.949Z,8.00
2018-08-08T17:34:30.841Z,8.10
2018-08-08T17:36:58.072Z,7.80
2018-08-08T17:39:24.968Z,7.50
2018-08-08T17:41:52.057Z,7.43
2018-08-08T17:44:19.849Z,7.87
2018-08-08T17:46:46.829Z,6.90
2018-08-08T17:49:13.745Z,6.97
2018-08-08T17:51:40.684Z,8.60
2018-08-08T17:54:07.545Z,7.10
2018-08-08T17:56:35.288Z,7.00
2018-08-08T18:02:02.249Z,7.33
2018-08-08T18:04:44.319Z,7.33
2018-08-08T18:07:26.614Z,6.87
2018-08-08T18:18:21.057Z,6.90
2018-08-08T18:21:02.338Z,7.50
2018-08-08T18:23:43.217Z,7.37
2018-08-08T18:26:27.274Z,7.53
2018-08-08T18:29:10.697Z,7.23
2018-08-08T18:34:36.808Z,6.57
2018-08-08T18:40:05.498Z,7.40
2018-08-08T18:42:46.936Z,7.17
2018-08-08T18:45:19.119Z,8.27
2018-08-08T18:47:58.648Z,7.50
2018-08-08T18:53:22.300Z,8.80
2018-08-08T18:55:59.816Z,8.33
2018-08-08T18:58:45.277Z,8.57
2018-08-08T19:01:26.071Z,7.97
2018-08-08T19:04:08.506Z,7.93
2018-08-08T19:06:50.796Z,8.23
2018-08-08T19:09:34.395Z,7.73
2018-08-08T19:12:16.682Z,8.77
2018-08-08T19:14:59.547Z,7.90
2018-08-08T19:17:40.688Z,8.50
2018-08-08T19:23:04.811Z,7.90
2018-08-08T19:25:44.109Z,8.30
2018-08-08T19:28:13.104Z,8.07
2018-08-08T19:30:52.945Z,8.30
2018-08-08T19:33:34.395Z,8.70
2018-08-08T19:36:03.169Z,8.50
2018-08-08T19:38:42.595Z,8.50
2018-08-08T19:41:22.337Z,8.07
2018-08-08T19:44:03.722Z,8.13
2018-08-08T19:46:44.703Z,9.20
2018-08-08T19:49:25.060Z,7.70
2018-08-08T19:52:06.173Z,9.00
2018-08-08T19:54:35.041Z,10.00
2018-08-08T19:57:13.339Z,9.20
2018-08-08T20:02:21.956Z,9.27
2018-08-08T20:07:48.044Z,18.90
2018-08-08T20:10:28.080Z,8.47
2018-08-08T20:13:07.397Z,12.80
2018-08-08T20:15:48.041Z,16.40
2018-08-08T20:18:15.877Z,10.53
2018-08-08T20:20:42.787Z,16.20
2018-08-08T20:23:12.011Z,25.80
2018-08-08T20:25:39.707Z,14.33
2018-08-08T20:28:07.060Z,17.70
2018-08-08T20:30:34.082Z,18.30
2018-08-08T20:33:01.684Z,19.10
2018-08-08T20:35:43.062Z,18.50
2018-08-08T20:38:23.679Z,16.57
2018-08-08T20:40:58.860Z,8.60
2018-08-08T20:43:28.416Z,8.30
2018-08-08T20:46:09.101Z,8.30
2018-08-08T20:48:45.686Z,9.57
2018-08-08T20:51:23.157Z,8.60
2018-08-08T20:56:42.780Z,9.23
2018-08-08T20:59:23.116Z,9.97
2018-08-08T21:02:02.547Z,8.90
2018-08-08T21:04:41.581Z,8.70
2018-08-08T21:07:12.077Z,9.20
2018-08-08T21:09:54.661Z,9.83
2018-08-08T21:12:35.503Z,9.30
2018-08-08T21:15:16.828Z,10.30
2018-08-08T21:17:56.786Z,8.13
2018-08-08T21:20:30.313Z,8.97
2018-08-08T21:22:57.536Z,9.80
2018-08-08T21:25:24.467Z,8.83
2018-08-08T21:27:51.328Z,9.20
2018-08-08T21:30:18.353Z,9.20
2018-08-08T21:32:47.908Z,9.07
2018-08-08T21:35:22.954Z,9.57
2018-08-08T21:38:02.730Z,9.70
2018-08-08T21:40:36.196Z,10.00
2018-08-08T21:43:10.910Z,9.73
2018-08-08T21:45:39.819Z,9.10
2018-08-08T21:48:11.662Z,9.90
2018-08-08T21:50:39.496Z,9.63
2018-08-08T21:53:09.272Z,8.73
2018-08-08T21:55:49.533Z,9.97
2018-08-08T21:58:37.440Z,9.37
2018-08-08T22:01:17.626Z,9.20
2018-08-08T22:03:56.701Z,9.70
2018-08-08T22:06:47.124Z,11.60
2018-08-08T22:09:36.507Z,10.20
2018-08-08T22:12:07.117Z,9.90
2018-08-08T22:14:46.380Z,10.17
2018-08-08T22:30:59.420Z,9.60
2018-08-08T22:33:36.278Z,9.90
2018-08-08T22:36:03.281Z,9.40
2018-08-08T22:38:30.780Z,10.10
2018-08-08T22:40:58.741Z,9.57
2018-08-08T22:43:25.693Z,10.30
2018-08-08T22:45:53.368Z,9.90
2018-08-08T22:48:20.230Z,8.77
2018-08-08T22:50:47.173Z,10.47
2018-08-08T22:53:14.059Z,9.90
2018-08-08T22:55:41.783Z,9.40
2018-08-08T22:58:08.865Z,10.27
2018-08-08T23:00:35.814Z,9.80
2018-08-08T23:03:02.745Z,11.03
2018-08-08T23:05:29.683Z,11.30
2018-08-08T23:07:56.581Z,11.03
2018-08-08T23:10:24.349Z,10.33
2018-08-08T23:12:51.403Z,11.50
2018-08-08T23:15:18.279Z,11.17
2018-08-08T23:17:45.287Z,11.00
2018-08-08T23:20:12.914Z,10.97
2018-08-08T23:22:46.822Z,11.93
2018-08-08T23:25:13.709Z,11.13
2018-08-08T23:27:40.642Z,12.83
2018-08-08T23:30:08.384Z,10.70
2018-08-08T23:32:35.411Z,11.20
2018-08-08T23:35:02.320Z,10.53
2018-08-08T23:37:29.249Z,11.53
2018-08-08T23:39:56.873Z,10.60
2018-08-08T23:42:23.809Z,11.80
2018-08-08T23:44:50.682Z,11.00
2018-08-08T23:47:17.626Z,11.27
2018-08-08T23:49:44.502Z,11.27
2018-08-08T23:52:11.426Z,12.60
2018-08-08T23:54:39.040Z,11.63
2018-08-08T23:57:06.019Z,12.47
2018-08-08T23:59:32.889Z,13.47
